sensor_id;sensor_type;location;lat;lon;timestamp;P1;durP1;ratioP1;P2;durP2;ratioP2
51957;SDS011;41120;51.820;20.804;2022-07-06T00:00:24;35.47;;;29.60;;
51957;SDS011;41120;51.820;20.804;2022-07-06T00:03:04;35.43;;;29.67;;
51957;SDS011;41120;51.820;20.804;2022-07-06T00:05:32;36.60;;;30.83;;
51957;SDS011;41120;51.820;20.804;2022-07-06T00:07:59;36.77;;;30.60;;
51957;SDS011;41120;51.820;20.804;2022-07-06T00:10:25;33.13;;;29.37;;
51957;SDS011;41120;51.820;20.804;2022-07-06T00:15:29;35.00;;;27.07;;
51957;SDS011;41120;51.820;20.804;2022-07-06T00:18:02;34.23;;;29.07;;
51957;SDS011;41120;51.820;20.804;2022-07-06T00:23:00;30.63;;;27.27;;
51957;SDS011;41120;51.820;20.804;2022-07-06T00:25:36;31.07;;;27.20;;
51957;SDS011;41120;51.820;20.804;2022-07-06T00:28:03;32.00;;;27.07;;
51957;SDS011;41120;51.820;20.804;2022-07-06T00:30:29;31.53;;;26.67;;
51957;SDS011;41120;51.820;20.804;2022-07-06T00:32:58;30.60;;;26.03;;
51957;SDS011;41120;51.820;20.804;2022-07-06T00:35:25;29.73;;;25.77;;
51957;SDS011;41120;51.820;20.804;2022-07-06T00:38:00;30.07;;;24.53;;
51957;SDS011;41120;51.820;20.804;2022-07-06T00:40:32;33.03;;;27.97;;
51957;SDS011;41120;51.820;20.804;2022-07-06T00:43:03;33.80;;;27.67;;
51957;SDS011;41120;51.820;20.804;2022-07-06T00:45:29;32.00;;;26.75;;
51957;SDS011;41120;51.820;20.804;2022-07-06T00:50:53;34.47;;;27.50;;
51957;SDS011;41120;51.820;20.804;2022-07-06T00:59:02;30.93;;;25.90;;
51957;SDS011;41120;51.820;20.804;2022-07-06T01:01:29;33.63;;;27.23;;
51957;SDS011;41120;51.820;20.804;2022-07-06T01:04:02;31.90;;;26.07;;
51957;SDS011;41120;51.820;20.804;2022-07-06T01:09:25;31.33;;;25.47;;
51957;SDS011;41120;51.820;20.804;2022-07-06T01:11:52;31.30;;;26.70;;
51957;SDS011;41120;51.820;20.804;2022-07-06T01:14:34;29.90;;;24.63;;
51957;SDS011;41120;51.820;20.804;2022-07-06T01:17:03;29.40;;;26.03;;
51957;SDS011;41120;51.820;20.804;2022-07-06T01:19:29;32.70;;;26.43;;
51957;SDS011;41120;51.820;20.804;2022-07-06T01:22:04;29.70;;;26.50;;
51957;SDS011;41120;51.820;20.804;2022-07-06T01:27:09;29.60;;;26.13;;
51957;SDS011;41120;51.820;20.804;2022-07-06T01:29:47;35.03;;;26.07;;
51957;SDS011;41120;51.820;20.804;2022-07-06T01:32:19;28.53;;;25.43;;
51957;SDS011;41120;51.820;20.804;2022-07-06T01:34:53;30.02;;;25.83;;
51957;SDS011;41120;51.820;20.804;2022-07-06T01:37:26;33.90;;;27.13;;
51957;SDS011;41120;51.820;20.804;2022-07-06T01:42:31;31.73;;;24.87;;
51957;SDS011;41120;51.820;20.804;2022-07-06T01:47:53;29.87;;;24.80;;
51957;SDS011;41120;51.820;20.804;2022-07-06T01:50:26;29.43;;;23.67;;
51957;SDS011;41120;51.820;20.804;2022-07-06T01:53:09;22.50;;;19.77;;
51957;SDS011;41120;51.820;20.804;2022-07-06T01:58:47;20.10;;;17.97;;
51957;SDS011;41120;51.820;20.804;2022-07-06T02:01:26;18.60;;;16.70;;
51957;SDS011;41120;51.820;20.804;2022-07-06T02:03:53;18.70;;;16.70;;
51957;SDS011;41120;51.820;20.804;2022-07-06T02:06:26;19.40;;;17.33;;
51957;SDS011;41120;51.820;20.804;2022-07-06T02:09:00;20.17;;;18.00;;
51957;SDS011;41120;51.820;20.804;2022-07-06T02:11:26;22.03;;;19.20;;
51957;SDS011;41120;51.820;20.804;2022-07-06T02:13:54;23.17;;;18.83;;
51957;SDS011;41120;51.820;20.804;2022-07-06T02:16:27;24.53;;;20.90;;
51957;SDS011;41120;51.820;20.804;2022-07-06T02:18:53;27.23;;;21.37;;
51957;SDS011;41120;51.820;20.804;2022-07-06T02:21:33;24.27;;;21.63;;
51957;SDS011;41120;51.820;20.804;2022-07-06T02:24:02;26.43;;;22.23;;
51957;SDS011;41120;51.820;20.804;2022-07-06T02:26:28;26.77;;;23.20;;
51957;SDS011;41120;51.820;20.804;2022-07-06T02:28:54;29.63;;;23.57;;
51957;SDS011;41120;51.820;20.804;2022-07-06T02:31:27;28.77;;;24.57;;
51957;SDS011;41120;51.820;20.804;2022-07-06T02:37:01;26.17;;;22.50;;
51957;SDS011;41120;51.820;20.804;2022-07-06T02:39:27;25.23;;;21.60;;
51957;SDS011;41120;51.820;20.804;2022-07-06T02:41:53;25.97;;;22.27;;
51957;SDS011;41120;51.820;20.804;2022-07-06T02:44:19;26.07;;;21.30;;
51957;SDS011;41120;51.820;20.804;2022-07-06T02:46:45;23.27;;;19.70;;
51957;SDS011;41120;51.820;20.804;2022-07-06T02:49:21;19.87;;;17.77;;
51957;SDS011;41120;51.820;20.804;2022-07-06T02:51:57;19.30;;;17.33;;
51957;SDS011;41120;51.820;20.804;2022-07-06T02:54:29;18.57;;;16.67;;
51957;SDS011;41120;51.820;20.804;2022-07-06T02:57:03;17.65;;;15.95;;
51957;SDS011;41120;51.820;20.804;2022-07-06T02:59:36;20.70;;;17.70;;
51957;SDS011;41120;51.820;20.804;2022-07-06T03:02:16;19.20;;;16.73;;
51957;SDS011;41120;51.820;20.804;2022-07-06T03:10:05;18.53;;;16.63;;
51957;SDS011;41120;51.820;20.804;2022-07-06T03:12:32;18.37;;;16.47;;
51957;SDS011;41120;51.820;20.804;2022-07-06T03:17:28;17.60;;;15.80;;
51957;SDS011;41120;51.820;20.804;2022-07-06T03:19:56;17.50;;;15.57;;
51957;SDS011;41120;51.820;20.804;2022-07-06T03:22:28;16.00;;;14.40;;
51957;SDS011;41120;51.820;20.804;2022-07-06T03:24:55;17.50;;;14.05;;
51957;SDS011;41120;51.820;20.804;2022-07-06T03:27:29;17.63;;;15.00;;
51957;SDS011;41120;51.820;20.804;2022-07-06T03:30:01;15.87;;;14.03;;
51957;SDS011;41120;51.820;20.804;2022-07-06T03:32:29;16.90;;;13.60;;
51957;SDS011;41120;51.820;20.804;2022-07-06T03:35:08;16.60;;;14.90;;
51957;SDS011;41120;51.820;20.804;2022-07-06T03:40:06;18.57;;;16.60;;
51957;SDS011;41120;51.820;20.804;2022-07-06T03:45:19;21.17;;;15.40;;
51957;SDS011;41120;51.820;20.804;2022-07-06T03:50:28;19.63;;;16.67;;
51957;SDS011;41120;51.820;20.804;2022-07-06T03:52:57;18.20;;;16.37;;
51957;SDS011;41120;51.820;20.804;2022-07-06T03:55:27;17.43;;;15.53;;
51957;SDS011;41120;51.820;20.804;2022-07-06T04:00:24;15.00;;;12.37;;
51957;SDS011;41120;51.820;20.804;2022-07-06T04:02:52;15.70;;;14.00;;
51957;SDS011;41120;51.820;20.804;2022-07-06T04:05:18;15.93;;;12.63;;
51957;SDS011;41120;51.820;20.804;2022-07-06T04:07:48;16.93;;;13.07;;
51957;SDS011;41120;51.820;20.804;2022-07-06T04:10:15;12.93;;;11.63;;
51957;SDS011;41120;51.820;20.804;2022-07-06T04:15:41;14.20;;;12.80;;
51957;SDS011;41120;51.820;20.804;2022-07-06T04:18:10;15.93;;;13.53;;
51957;SDS011;41120;51.820;20.804;2022-07-06T04:20:40;14.90;;;13.33;;
51957;SDS011;41120;51.820;20.804;2022-07-06T04:23:12;14.70;;;13.20;;
51957;SDS011;41120;51.820;20.804;2022-07-06T04:25:40;17.23;;;13.45;;
51957;SDS011;41120;51.820;20.804;2022-07-06T04:28:11;17.67;;;14.20;;
51957;SDS011;41120;51.820;20.804;2022-07-06T04:33:19;15.33;;;13.27;;
51957;SDS011;41120;51.820;20.804;2022-07-06T04:35:47;15.40;;;13.43;;
51957;SDS011;41120;51.820;20.804;2022-07-06T04:41:06;13.73;;;12.03;;
51957;SDS011;41120;51.820;20.804;2022-07-06T04:46:30;14.63;;;13.13;;
51957;SDS011;41120;51.820;20.804;2022-07-06T04:48:57;18.42;;;13.57;;
51957;SDS011;41120;51.820;20.804;2022-07-06T04:51:24;13.63;;;12.23;;
51957;SDS011;41120;51.820;20.804;2022-07-06T04:53:52;12.37;;;11.10;;
51957;SDS011;41120;51.820;20.804;2022-07-06T04:56:34;18.73;;;11.30;;
51957;SDS011;41120;51.820;20.804;2022-07-06T05:02:02;9.87;;;7.77;;
51957;SDS011;41120;51.820;20.804;2022-07-06T05:04:30;6.87;;;5.80;;
51957;SDS011;41120;51.820;20.804;2022-07-06T05:07:11;8.43;;;5.63;;
51957;SDS011;41120;51.820;20.804;2022-07-06T05:09:43;6.13;;;5.57;;
51957;SDS011;41120;51.820;20.804;2022-07-06T05:12:12;6.47;;;5.82;;
51957;SDS011;41120;51.820;20.804;2022-07-06T05:14:41;6.00;;;5.00;;
51957;SDS011;41120;51.820;20.804;2022-07-06T05:17:14;5.87;;;4.30;;
51957;SDS011;41120;51.820;20.804;2022-07-06T05:22:27;6.63;;;3.60;;
51957;SDS011;41120;51.820;20.804;2022-07-06T05:25:01;5.07;;;3.43;;
51957;SDS011;41120;51.820;20.804;2022-07-06T05:27:32;4.60;;;3.17;;
51957;SDS011;41120;51.820;20.804;2022-07-06T05:29:59;3.08;;;2.60;;
51957;SDS011;41120;51.820;20.804;2022-07-06T05:32:25;3.77;;;2.40;;
51957;SDS011;41120;51.820;20.804;2022-07-06T05:34:54;3.47;;;2.60;;
51957;SDS011;41120;51.820;20.804;2022-07-06T05:39:48;4.17;;;3.10;;
51957;SDS011;41120;51.820;20.804;2022-07-06T05:42:17;5.63;;;3.20;;
51957;SDS011;41120;51.820;20.804;2022-07-06T05:44:53;4.17;;;2.50;;
51957;SDS011;41120;51.820;20.804;2022-07-06T05:47:20;2.80;;;2.60;;
51957;SDS011;41120;51.820;20.804;2022-07-06T05:50:16;2.67;;;2.43;;
51957;SDS011;41120;51.820;20.804;2022-07-06T05:52:59;3.93;;;2.43;;
51957;SDS011;41120;51.820;20.804;2022-07-06T05:55:41;3.93;;;2.30;;
51957;SDS011;41120;51.820;20.804;2022-07-06T05:58:13;5.57;;;2.15;;
51957;SDS011;41120;51.820;20.804;2022-07-06T06:00:41;2.10;;;1.70;;
51957;SDS011;41120;51.820;20.804;2022-07-06T06:03:08;2.08;;;1.80;;
51957;SDS011;41120;51.820;20.804;2022-07-06T06:05:34;3.45;;;1.85;;
51957;SDS011;41120;51.820;20.804;2022-07-06T06:08:02;2.70;;;1.90;;
51957;SDS011;41120;51.820;20.804;2022-07-06T06:10:28;2.40;;;1.50;;
51957;SDS011;41120;51.820;20.804;2022-07-06T06:12:55;1.85;;;1.58;;
51957;SDS011;41120;51.820;20.804;2022-07-06T06:15:27;2.05;;;1.60;;
51957;SDS011;41120;51.820;20.804;2022-07-06T06:17:53;4.05;;;2.03;;
51957;SDS011;41120;51.820;20.804;2022-07-06T06:20:19;3.38;;;2.03;;
51957;SDS011;41120;51.820;20.804;2022-07-06T06:28:04;4.27;;;3.00;;
51957;SDS011;41120;51.820;20.804;2022-07-06T06:33:32;3.90;;;2.63;;
51957;SDS011;41120;51.820;20.804;2022-07-06T06:38:36;4.63;;;3.20;;
51957;SDS011;41120;51.820;20.804;2022-07-06T06:41:02;4.70;;;4.20;;
51957;SDS011;41120;51.820;20.804;2022-07-06T06:45:58;7.07;;;4.27;;
51957;SDS011;41120;51.820;20.804;2022-07-06T06:48:32;5.17;;;3.97;;
51957;SDS011;41120;51.820;20.804;2022-07-06T06:53:41;5.13;;;4.37;;
51957;SDS011;41120;51.820;20.804;2022-07-06T06:56:10;5.20;;;4.13;;
51957;SDS011;41120;51.820;20.804;2022-07-06T06:58:38;5.63;;;4.20;;
51957;SDS011;41120;51.820;20.804;2022-07-06T07:01:04;5.23;;;4.10;;
51957;SDS011;41120;51.820;20.804;2022-07-06T07:03:30;4.80;;;4.30;;
51957;SDS011;41120;51.820;20.804;2022-07-06T07:05:59;4.63;;;3.80;;
51957;SDS011;41120;51.820;20.804;2022-07-06T07:08:29;5.40;;;4.70;;
51957;SDS011;41120;51.820;20.804;2022-07-06T07:10:55;5.33;;;4.23;;
51957;SDS011;41120;51.820;20.804;2022-07-06T07:13:20;5.47;;;4.97;;
51957;SDS011;41120;51.820;20.804;2022-07-06T07:15:48;6.60;;;5.13;;
51957;SDS011;41120;51.820;20.804;2022-07-06T07:18:16;5.90;;;5.40;;
51957;SDS011;41120;51.820;20.804;2022-07-06T07:20:44;8.37;;;4.80;;
51957;SDS011;41120;51.820;20.804;2022-07-06T07:25:52;5.73;;;5.23;;
51957;SDS011;41120;51.820;20.804;2022-07-06T07:28:20;5.97;;;5.47;;
51957;SDS011;41120;51.820;20.804;2022-07-06T07:31:01;7.00;;;6.00;;
51957;SDS011;41120;51.820;20.804;2022-07-06T07:33:41;7.68;;;6.97;;
51957;SDS011;41120;51.820;20.804;2022-07-06T07:36:09;8.60;;;7.70;;
51957;SDS011;41120;51.820;20.804;2022-07-06T07:38:39;9.57;;;7.90;;
51957;SDS011;41120;51.820;20.804;2022-07-06T07:41:04;8.30;;;7.47;;
51957;SDS011;41120;51.820;20.804;2022-07-06T07:43:31;9.00;;;7.43;;
51957;SDS011;41120;51.820;20.804;2022-07-06T07:48:27;10.30;;;7.53;;
51957;SDS011;41120;51.820;20.804;2022-07-06T07:53:29;10.53;;;7.20;;
51957;SDS011;41120;51.820;20.804;2022-07-06T07:55:55;8.30;;;7.43;;
51957;SDS011;41120;51.820;20.804;2022-07-06T07:58:22;10.27;;;7.67;;
51957;SDS011;41120;51.820;20.804;2022-07-06T08:00:49;8.40;;;7.00;;
51957;SDS011;41120;51.820;20.804;2022-07-06T08:03:16;7.83;;;7.03;;
51957;SDS011;41120;51.820;20.804;2022-07-06T08:05:41;8.60;;;7.67;;
51957;SDS011;41120;51.820;20.804;2022-07-06T08:10:38;11.27;;;8.33;;
51957;SDS011;41120;51.820;20.804;2022-07-06T08:13:12;11.20;;;8.07;;
51957;SDS011;41120;51.820;20.804;2022-07-06T08:15:41;10.73;;;8.40;;
51957;SDS011;41120;51.820;20.804;2022-07-06T08:18:15;8.47;;;7.13;;
51957;SDS011;41120;51.820;20.804;2022-07-06T08:20:47;9.27;;;7.20;;
51957;SDS011;41120;51.820;20.804;2022-07-06T08:23:15;7.63;;;6.93;;
51957;SDS011;41120;51.820;20.804;2022-07-06T08:25:41;11.27;;;7.20;;
51957;SDS011;41120;51.820;20.804;2022-07-06T08:28:08;8.80;;;6.93;;
51957;SDS011;41120;51.820;20.804;2022-07-06T08:30:42;6.43;;;5.33;;
51957;SDS011;41120;51.820;20.804;2022-07-06T08:35:39;6.82;;;3.78;;
51957;SDS011;41120;51.820;20.804;2022-07-06T08:40:53;7.00;;;3.37;;
51957;SDS011;41120;51.820;20.804;2022-07-06T08:43:34;5.17;;;3.10;;
51957;SDS011;41120;51.820;20.804;2022-07-06T08:46:02;5.77;;;3.43;;
51957;SDS011;41120;51.820;20.804;2022-07-06T08:51:06;5.43;;;2.40;;
51957;SDS011;41120;51.820;20.804;2022-07-06T08:56:01;7.70;;;3.30;;
51957;SDS011;41120;51.820;20.804;2022-07-06T08:58:35;4.33;;;2.90;;
51957;SDS011;41120;51.820;20.804;2022-07-06T09:03:57;4.43;;;2.73;;
51957;SDS011;41120;51.820;20.804;2022-07-06T09:09:05;4.43;;;2.13;;
51957;SDS011;41120;51.820;20.804;2022-07-06T09:11:35;4.53;;;2.00;;
51957;SDS011;41120;51.820;20.804;2022-07-06T09:16:52;4.17;;;1.93;;
51957;SDS011;41120;51.820;20.804;2022-07-06T09:19:39;3.40;;;1.40;;
51957;SDS011;41120;51.820;20.804;2022-07-06T09:22:24;6.47;;;1.40;;
51957;SDS011;41120;51.820;20.804;2022-07-06T09:27:45;3.00;;;1.53;;
51957;SDS011;41120;51.820;20.804;2022-07-06T09:30:22;3.63;;;1.30;;
51957;SDS011;41120;51.820;20.804;2022-07-06T09:32:50;1.60;;;1.10;;
51957;SDS011;41120;51.820;20.804;2022-07-06T09:40:51;2.03;;;1.23;;
51957;SDS011;41120;51.820;20.804;2022-07-06T09:43:20;1.80;;;1.20;;
51957;SDS011;41120;51.820;20.804;2022-07-06T09:48:48;1.30;;;1.20;;
51957;SDS011;41120;51.820;20.804;2022-07-06T09:51:18;3.57;;;1.53;;
51957;SDS011;41120;51.820;20.804;2022-07-06T09:53:52;3.20;;;1.30;;
51957;SDS011;41120;51.820;20.804;2022-07-06T09:56:19;3.87;;;1.00;;
51957;SDS011;41120;51.820;20.804;2022-07-06T09:58:57;1.67;;;1.20;;
51957;SDS011;41120;51.820;20.804;2022-07-06T10:01:28;3.03;;;1.17;;
51957;SDS011;41120;51.820;20.804;2022-07-06T10:03:56;2.10;;;1.23;;
51957;SDS011;41120;51.820;20.804;2022-07-06T10:06:23;3.83;;;1.23;;
51957;SDS011;41120;51.820;20.804;2022-07-06T10:08:53;1.77;;;1.10;;
51957;SDS011;41120;51.820;20.804;2022-07-06T10:11:20;2.20;;;1.07;;
51957;SDS011;41120;51.820;20.804;2022-07-06T10:16:28;4.87;;;1.00;;
51957;SDS011;41120;51.820;20.804;2022-07-06T10:19:02;3.03;;;0.90;;
51957;SDS011;41120;51.820;20.804;2022-07-06T10:24:27;1.87;;;1.00;;
51957;SDS011;41120;51.820;20.804;2022-07-06T10:26:55;3.07;;;0.80;;
51957;SDS011;41120;51.820;20.804;2022-07-06T10:29:39;3.50;;;1.10;;
51957;SDS011;41120;51.820;20.804;2022-07-06T10:35:01;1.50;;;0.80;;
51957;SDS011;41120;51.820;20.804;2022-07-06T10:37:34;1.25;;;0.80;;
51957;SDS011;41120;51.820;20.804;2022-07-06T10:43:17;1.27;;;0.73;;
51957;SDS011;41120;51.820;20.804;2022-07-06T10:45:50;2.07;;;0.90;;
51957;SDS011;41120;51.820;20.804;2022-07-06T10:48:17;1.13;;;0.67;;
51957;SDS011;41120;51.820;20.804;2022-07-06T10:50:53;4.60;;;0.90;;
51957;SDS011;41120;51.820;20.804;2022-07-06T10:55:50;4.37;;;0.90;;
51957;SDS011;41120;51.820;20.804;2022-07-06T11:01:17;1.30;;;0.73;;
51957;SDS011;41120;51.820;20.804;2022-07-06T11:09:07;2.53;;;0.80;;
51957;SDS011;41120;51.820;20.804;2022-07-06T11:14:14;2.28;;;0.90;;
51957;SDS011;41120;51.820;20.804;2022-07-06T11:19:34;2.03;;;0.73;;
51957;SDS011;41120;51.820;20.804;2022-07-06T11:22:09;1.60;;;0.60;;
51957;SDS011;41120;51.820;20.804;2022-07-06T11:24:40;2.03;;;0.80;;
51957;SDS011;41120;51.820;20.804;2022-07-06T11:27:13;0.80;;;0.68;;
51957;SDS011;41120;51.820;20.804;2022-07-06T11:29:41;1.17;;;0.77;;
51957;SDS011;41120;51.820;20.804;2022-07-06T11:32:14;1.70;;;0.90;;
51957;SDS011;41120;51.820;20.804;2022-07-06T11:37:44;4.57;;;0.90;;
51957;SDS011;41120;51.820;20.804;2022-07-06T11:40:10;2.07;;;0.63;;
51957;SDS011;41120;51.820;20.804;2022-07-06T11:42:38;1.40;;;0.80;;
51957;SDS011;41120;51.820;20.804;2022-07-06T11:45:07;2.07;;;0.70;;
51957;SDS011;41120;51.820;20.804;2022-07-06T11:50:06;4.20;;;0.83;;
51957;SDS011;41120;51.820;20.804;2022-07-06T11:52:33;2.40;;;0.70;;
51957;SDS011;41120;51.820;20.804;2022-07-06T12:00:06;1.03;;;0.60;;
51957;SDS011;41120;51.820;20.804;2022-07-06T12:02:35;2.83;;;0.70;;
51957;SDS011;41120;51.820;20.804;2022-07-06T12:05:28;1.80;;;0.70;;
51957;SDS011;41120;51.820;20.804;2022-07-06T12:08:07;1.57;;;0.70;;
51957;SDS011;41120;51.820;20.804;2022-07-06T12:10:34;3.70;;;0.87;;
51957;SDS011;41120;51.820;20.804;2022-07-06T12:16:07;3.53;;;0.70;;
51957;SDS011;41120;51.820;20.804;2022-07-06T12:18:39;0.97;;;0.60;;
51957;SDS011;41120;51.820;20.804;2022-07-06T12:21:12;3.13;;;0.70;;
51957;SDS011;41120;51.820;20.804;2022-07-06T12:26:55;1.87;;;0.60;;
51957;SDS011;41120;51.820;20.804;2022-07-06T12:29:39;4.70;;;0.80;;
51957;SDS011;41120;51.820;20.804;2022-07-06T12:32:20;2.47;;;0.80;;
51957;SDS011;41120;51.820;20.804;2022-07-06T12:37:55;2.23;;;0.63;;
51957;SDS011;41120;51.820;20.804;2022-07-06T12:40:40;1.80;;;0.90;;
51957;SDS011;41120;51.820;20.804;2022-07-06T12:46:22;2.63;;;0.60;;
51957;SDS011;41120;51.820;20.804;2022-07-06T12:49:01;2.50;;;0.60;;
51957;SDS011;41120;51.820;20.804;2022-07-06T12:51:29;3.40;;;0.70;;
51957;SDS011;41120;51.820;20.804;2022-07-06T12:54:14;2.10;;;0.70;;
51957;SDS011;41120;51.820;20.804;2022-07-06T12:56:58;6.47;;;0.90;;
51957;SDS011;41120;51.820;20.804;2022-07-06T12:59:33;2.67;;;0.90;;
51957;SDS011;41120;51.820;20.804;2022-07-06T13:02:03;3.10;;;0.70;;
51957;SDS011;41120;51.820;20.804;2022-07-06T13:04:31;2.03;;;0.70;;
51957;SDS011;41120;51.820;20.804;2022-07-06T13:07:00;2.30;;;0.70;;
51957;SDS011;41120;51.820;20.804;2022-07-06T13:09:28;1.43;;;0.60;;
51957;SDS011;41120;51.820;20.804;2022-07-06T13:11:54;2.33;;;0.77;;
51957;SDS011;41120;51.820;20.804;2022-07-06T13:14:21;2.10;;;0.70;;
51957;SDS011;41120;51.820;20.804;2022-07-06T13:16:47;2.13;;;1.00;;
51957;SDS011;41120;51.820;20.804;2022-07-06T13:19:15;3.50;;;0.60;;
51957;SDS011;41120;51.820;20.804;2022-07-06T13:21:41;3.47;;;0.70;;
51957;SDS011;41120;51.820;20.804;2022-07-06T13:24:07;9.80;;;1.10;;
51957;SDS011;41120;51.820;20.804;2022-07-06T13:26:33;1.40;;;0.60;;
51957;SDS011;41120;51.820;20.804;2022-07-06T13:29:00;3.10;;;0.70;;
51957;SDS011;41120;51.820;20.804;2022-07-06T13:31:27;3.73;;;1.00;;
51957;SDS011;41120;51.820;20.804;2022-07-06T13:33:55;1.93;;;0.53;;
51957;SDS011;41120;51.820;20.804;2022-07-06T13:36:22;1.90;;;0.80;;
51957;SDS011;41120;51.820;20.804;2022-07-06T13:38:49;1.05;;;0.60;;
51957;SDS011;41120;51.820;20.804;2022-07-06T13:41:15;1.33;;;0.63;;
51957;SDS011;41120;51.820;20.804;2022-07-06T13:43:41;2.30;;;0.63;;
51957;SDS011;41120;51.820;20.804;2022-07-06T13:46:07;1.92;;;0.55;;
51957;SDS011;41120;51.820;20.804;2022-07-06T13:48:36;4.40;;;0.70;;
51957;SDS011;41120;51.820;20.804;2022-07-06T13:51:02;3.10;;;0.70;;
51957;SDS011;41120;51.820;20.804;2022-07-06T13:53:30;2.53;;;0.80;;
51957;SDS011;41120;51.820;20.804;2022-07-06T13:55:57;3.73;;;0.90;;
51957;SDS011;41120;51.820;20.804;2022-07-06T13:58:23;2.63;;;1.00;;
51957;SDS011;41120;51.820;20.804;2022-07-06T14:00:49;3.37;;;0.80;;
51957;SDS011;41120;51.820;20.804;2022-07-06T14:03:16;0.93;;;0.70;;
51957;SDS011;41120;51.820;20.804;2022-07-06T14:05:45;3.17;;;1.00;;
51957;SDS011;41120;51.820;20.804;2022-07-06T14:08:11;2.40;;;0.60;;
51957;SDS011;41120;51.820;20.804;2022-07-06T14:10:37;4.63;;;0.80;;
51957;SDS011;41120;51.820;20.804;2022-07-06T14:13:03;4.00;;;0.83;;
51957;SDS011;41120;51.820;20.804;2022-07-06T14:15:29;3.30;;;0.80;;
51957;SDS011;41120;51.820;20.804;2022-07-06T14:17:59;4.93;;;0.87;;
51957;SDS011;41120;51.820;20.804;2022-07-06T14:20:25;2.63;;;0.73;;
51957;SDS011;41120;51.820;20.804;2022-07-06T14:22:51;1.43;;;0.80;;
51957;SDS011;41120;51.820;20.804;2022-07-06T14:25:18;2.50;;;0.80;;
51957;SDS011;41120;51.820;20.804;2022-07-06T14:27:44;5.57;;;0.80;;
51957;SDS011;41120;51.820;20.804;2022-07-06T14:30:10;4.60;;;1.10;;
51957;SDS011;41120;51.820;20.804;2022-07-06T14:32:36;1.73;;;1.00;;
51957;SDS011;41120;51.820;20.804;2022-07-06T14:35:02;5.57;;;0.93;;
51957;SDS011;41120;51.820;20.804;2022-07-06T14:37:29;5.10;;;1.10;;
51957;SDS011;41120;51.820;20.804;2022-07-06T14:40:01;10.10;;;1.33;;
51957;SDS011;41120;51.820;20.804;2022-07-06T14:42:28;2.03;;;1.17;;
51957;SDS011;41120;51.820;20.804;2022-07-06T14:44:54;7.03;;;1.70;;
51957;SDS011;41120;51.820;20.804;2022-07-06T14:47:22;6.20;;;1.30;;
51957;SDS011;41120;51.820;20.804;2022-07-06T14:49:49;5.43;;;1.33;;
51957;SDS011;41120;51.820;20.804;2022-07-06T14:52:16;6.07;;;1.60;;
51957;SDS011;41120;51.820;20.804;2022-07-06T14:54:42;3.40;;;1.40;;
51957;SDS011;41120;51.820;20.804;2022-07-06T14:57:09;6.57;;;1.60;;
51957;SDS011;41120;51.820;20.804;2022-07-06T14:59:44;5.93;;;1.67;;
51957;SDS011;41120;51.820;20.804;2022-07-06T15:02:19;4.03;;;1.67;;
51957;SDS011;41120;51.820;20.804;2022-07-06T15:04:45;6.07;;;1.30;;
51957;SDS011;41120;51.820;20.804;2022-07-06T15:07:17;4.97;;;1.67;;
51957;SDS011;41120;51.820;20.804;2022-07-06T15:12:09;2.63;;;1.53;;
51957;SDS011;41120;51.820;20.804;2022-07-06T15:14:40;3.87;;;1.53;;
51957;SDS011;41120;51.820;20.804;2022-07-06T15:17:13;6.40;;;1.60;;
51957;SDS011;41120;51.820;20.804;2022-07-06T15:19:48;4.47;;;1.57;;
51957;SDS011;41120;51.820;20.804;2022-07-06T15:24:51;1.83;;;1.20;;
51957;SDS011;41120;51.820;20.804;2022-07-06T15:27:23;4.83;;;1.67;;
51957;SDS011;41120;51.820;20.804;2022-07-06T15:29:51;4.18;;;1.90;;
51957;SDS011;41120;51.820;20.804;2022-07-06T15:32:17;4.40;;;1.60;;
51957;SDS011;41120;51.820;20.804;2022-07-06T15:34:43;3.40;;;1.50;;
51957;SDS011;41120;51.820;20.804;2022-07-06T15:37:09;3.40;;;1.57;;
51957;SDS011;41120;51.820;20.804;2022-07-06T15:39:38;4.50;;;1.57;;
51957;SDS011;41120;51.820;20.804;2022-07-06T15:42:04;3.63;;;1.60;;
51957;SDS011;41120;51.820;20.804;2022-07-06T15:44:32;3.87;;;1.50;;
51957;SDS011;41120;51.820;20.804;2022-07-06T15:49:30;4.40;;;1.33;;
51957;SDS011;41120;51.820;20.804;2022-07-06T15:51:56;6.40;;;1.70;;
51957;SDS011;41120;51.820;20.804;2022-07-06T15:54:29;2.70;;;1.47;;
51957;SDS011;41120;51.820;20.804;2022-07-06T15:59:22;4.43;;;1.50;;
51957;SDS011;41120;51.820;20.804;2022-07-06T16:01:50;4.40;;;1.40;;
51957;SDS011;41120;51.820;20.804;2022-07-06T16:04:18;2.07;;;1.33;;
51957;SDS011;41120;51.820;20.804;2022-07-06T16:06:45;4.50;;;1.40;;
51957;SDS011;41120;51.820;20.804;2022-07-06T16:09:11;2.93;;;1.30;;
51957;SDS011;41120;51.820;20.804;2022-07-06T16:11:38;4.43;;;1.60;;
51957;SDS011;41120;51.820;20.804;2022-07-06T16:19:13;4.77;;;1.57;;
51957;SDS011;41120;51.820;20.804;2022-07-06T16:21:41;2.77;;;1.50;;
51957;SDS011;41120;51.820;20.804;2022-07-06T16:24:14;2.23;;;1.30;;
51957;SDS011;41120;51.820;20.804;2022-07-06T16:26:47;1.70;;;1.50;;
51957;SDS011;41120;51.820;20.804;2022-07-06T16:29:28;3.45;;;1.50;;
51957;SDS011;41120;51.820;20.804;2022-07-06T16:32:00;2.30;;;1.40;;
51957;SDS011;41120;51.820;20.804;2022-07-06T16:37:17;5.67;;;1.53;;
51957;SDS011;41120;51.820;20.804;2022-07-06T16:39:45;3.43;;;1.87;;
51957;SDS011;41120;51.820;20.804;2022-07-06T16:42:12;6.80;;;1.47;;
51957;SDS011;41120;51.820;20.804;2022-07-06T16:44:38;2.37;;;1.33;;
51957;SDS011;41120;51.820;20.804;2022-07-06T16:52:23;5.73;;;1.50;;
51957;SDS011;41120;51.820;20.804;2022-07-06T16:55:07;4.13;;;1.47;;
51957;SDS011;41120;51.820;20.804;2022-07-06T16:57:34;6.00;;;1.77;;
51957;SDS011;41120;51.820;20.804;2022-07-06T17:00:03;1.93;;;1.37;;
51957;SDS011;41120;51.820;20.804;2022-07-06T17:02:39;3.57;;;1.57;;
51957;SDS011;41120;51.820;20.804;2022-07-06T17:05:06;4.07;;;1.40;;
51957;SDS011;41120;51.820;20.804;2022-07-06T17:07:33;3.03;;;1.70;;
51957;SDS011;41120;51.820;20.804;2022-07-06T17:10:05;4.93;;;1.83;;
51957;SDS011;41120;51.820;20.804;2022-07-06T17:12:33;3.10;;;1.80;;
51957;SDS011;41120;51.820;20.804;2022-07-06T17:15:01;2.43;;;1.60;;
51957;SDS011;41120;51.820;20.804;2022-07-06T17:20:04;3.00;;;1.80;;
51957;SDS011;41120;51.820;20.804;2022-07-06T17:22:31;5.00;;;1.77;;
51957;SDS011;41120;51.820;20.804;2022-07-06T17:25:03;6.50;;;1.70;;
51957;SDS011;41120;51.820;20.804;2022-07-06T17:27:30;5.53;;;2.03;;
51957;SDS011;41120;51.820;20.804;2022-07-06T17:30:03;6.10;;;2.00;;
51957;SDS011;41120;51.820;20.804;2022-07-06T17:32:35;3.87;;;1.90;;
51957;SDS011;41120;51.820;20.804;2022-07-06T17:37:34;4.50;;;2.50;;
51957;SDS011;41120;51.820;20.804;2022-07-06T17:40:02;3.40;;;1.70;;
51957;SDS011;41120;51.820;20.804;2022-07-06T17:42:29;3.83;;;1.67;;
51957;SDS011;41120;51.820;20.804;2022-07-06T17:45:04;3.77;;;1.83;;
51957;SDS011;41120;51.820;20.804;2022-07-06T17:47:30;2.87;;;1.90;;
51957;SDS011;41120;51.820;20.804;2022-07-06T17:50:07;4.00;;;1.63;;
51957;SDS011;41120;51.820;20.804;2022-07-06T17:52:34;4.63;;;1.63;;
51957;SDS011;41120;51.820;20.804;2022-07-06T17:55:14;2.27;;;1.60;;
51957;SDS011;41120;51.820;20.804;2022-07-06T17:57:40;3.50;;;1.77;;
51957;SDS011;41120;51.820;20.804;2022-07-06T18:00:06;4.67;;;1.70;;
51957;SDS011;41120;51.820;20.804;2022-07-06T18:02:36;3.03;;;1.63;;
51957;SDS011;41120;51.820;20.804;2022-07-06T18:05:03;3.00;;;1.57;;
51957;SDS011;41120;51.820;20.804;2022-07-06T18:07:29;2.90;;;1.70;;